メインページ
METAR-TAF:

METAR-TAF

空港 :

鳥取空港

鳥取, 日本

緯度: 35-32N, 経度: 134-10E, 海抜: 15m

現時点の気象観測

当レポートは22分前の07:00(UTC)に作成
北/北東の風 10kt
気温 28°C
湿度 66%
気圧 1007 hPa
視程10km以上
高度4000ftの雲はほとんどない
高度6000ftの雲は散在している

METAR: RJOR 200700Z 02010KT 9999 FEW040 SCT060 28/21 Q1007

時間: 16:22 (07:22 UTC)


TAF: 見つかりません

4,000以上の空港の気象観測と天気予報(METAR報とTAF報)

利用可能な観測所は地図上に黄色い丸と赤い丸で示す。

丸の上にカーソルを重ねると観測所名を参照できる。

次にクリックすると気象観測と天気予報を参照できる。

マップの切り替え:黒色「×」印の緑ボタンをクリックして拡大、「-」印の緑ボタンをクリックして縮小、緑色の三角印をクリックして隣りの地図に切り替え


METAR-TAF: